Time;durP1;ratioP1;P1;durP2;ratioP2;P2;SDS_P1;SDS_P2;PMS_P1;PMS_P2;Temp;Humidity;BMP_temperature;BMP_pressure;BME280_temperature;BME280_humidity;BME280_pressure;Samples;Min_cycle;Max_cycle;Signal;HPM_P1;HPM_P2
2022/05/31 00:01:26;;;;;;;7.93;5.20;;;7.00;89.80;;;;;;6124061;23;20031;-80
2022/05/31 00:03:53;;;;;;;6.72;4.97;;;7.00;90.20;;;;;;6123974;23;20037;-78
2022/05/31 00:06:19;;;;;;;9.25;4.90;;;7.00;90.00;;;;;;6123642;23;20026;-80
2022/05/31 00:08:49;;;;;;;7.60;5.68;;;6.90;89.70;;;;;;6125054;23;20547;-80
2022/05/31 00:11:16;;;;;;;9.27;5.72;;;6.90;90.30;;;;;;6123545;23;20034;-79
2022/05/31 00:13:42;;;;;;;9.25;5.13;;;6.90;91.00;;;;;;6123857;23;20026;-79
2022/05/31 00:16:10;;;;;;;7.07;4.78;;;6.90;90.40;;;;;;6123792;23;20031;-79
2022/05/31 00:18:37;;;;;;;6.75;4.65;;;6.80;90.10;;;;;;6123076;23;20033;-79
2022/05/31 00:21:05;;;;;;;6.50;4.68;;;6.80;89.80;;;;;;6122772;23;20573;-79
2022/05/31 00:23:32;;;;;;;8.40;5.28;;;6.70;89.80;;;;;;6123539;23;20023;-79
2022/05/31 00:25:59;;;;;;;12.57;5.05;;;6.70;89.80;;;;;;6122910;23;20061;-80
2022/05/31 00:28:26;;;;;;;7.50;5.10;;;6.70;89.90;;;;;;6123871;23;20027;-79
2022/05/31 00:30:53;;;;;;;9.52;5.43;;;6.60;89.70;;;;;;6122846;23;20493;-79
2022/05/31 00:33:20;;;;;;;6.90;5.00;;;6.70;90.50;;;;;;6122701;23;20030;-79
2022/05/31 00:35:49;;;;;;;8.10;5.38;;;6.60;90.60;;;;;;6124047;23;20027;-79
2022/05/31 00:38:17;;;;;;;7.07;5.00;;;6.70;91.30;;;;;;6124833;23;20042;-79
2022/05/31 00:40:43;;;;;;;9.07;5.45;;;6.70;91.40;;;;;;6124315;23;20027;-79
2022/05/31 00:43:15;;;;;;;7.72;5.25;;;6.70;91.60;;;;;;6123833;23;20026;-79
2022/05/31 00:45:54;;;;;;;9.93;6.03;;;6.80;91.50;;;;;;6123827;23;20347;-80
2022/05/31 00:48:26;;;;;;;10.30;5.72;;;6.80;91.20;;;;;;6122807;23;20500;-79
2022/05/31 00:51:00;;;;;;;9.77;5.45;;;6.80;91.10;;;;;;6123531;23;20034;-79
2022/05/31 00:53:32;;;;;;;9.00;5.40;;;6.80;91.00;;;;;;6122747;23;20026;-79
2022/05/31 00:56:02;;;;;;;10.25;5.65;;;6.80;91.00;;;;;;6121505;23;20037;-79
2022/05/31 00:58:35;;;;;;;7.30;5.30;;;6.80;91.40;;;;;;6123526;23;20065;-80
2022/05/31 01:01:06;;;;;;;8.25;5.63;;;6.90;91.60;;;;;;6123810;23;20030;-79
2022/05/31 01:03:40;;;;;;;7.15;5.10;;;6.90;91.30;;;;;;6123324;23;20101;-79
2022/05/31 01:06:10;;;;;;;12.25;5.55;;;6.90;90.70;;;;;;6121588;23;20458;-79
2022/05/31 01:08:41;;;;;;;8.10;5.78;;;6.90;90.90;;;;;;6122480;23;20030;-79
2022/05/31 01:11:08;;;;;;;9.40;6.07;;;6.90;91.10;;;;;;6122648;23;20027;-79
2022/05/31 01:13:35;;;;;;;10.43;6.43;;;7.00;92.10;;;;;;6123791;23;20046;-79
2022/05/31 01:16:05;;;;;;;9.05;5.75;;;7.00;92.00;;;;;;6146066;23;20031;-79
2022/05/31 01:18:32;;;;;;;9.70;5.18;;;7.00;91.80;;;;;;6123075;23;20035;-79
2022/05/31 01:21:01;;;;;;;9.70;5.45;;;7.00;91.90;;;;;;6124012;23;20032;-79
2022/05/31 01:23:34;;;;;;;8.75;5.05;;;7.10;91.50;;;;;;6122530;23;20037;-79
2022/05/31 01:26:22;;;;;;;7.10;4.53;;;7.10;91.40;;;;;;6123557;23;20468;-79
2022/05/31 01:29:25;;;;;;;7.15;4.47;;;7.10;91.30;;;;;;6123059;23;20019;-79
2022/05/31 01:31:58;;;;;;;7.40;4.60;;;7.10;91.10;;;;;;6110138;23;20031;-79
2022/05/31 01:34:31;;;;;;;;;;;7.10;90.80;;;;;;6122414;23;20030;-79
2022/05/31 01:36:58;;;;;;;9.20;4.40;;;7.10;90.90;;;;;;6123187;23;19925;-79
2022/05/31 01:39:34;;;;;;;6.65;4.30;;;7.10;91.30;;;;;;6121354;23;20023;-79
2022/05/31 01:42:09;;;;;;;11.20;5.15;;;7.20;91.50;;;;;;6122533;23;20026;-79
2022/05/31 01:44:41;;;;;;;7.90;5.10;;;7.20;91.10;;;;;;6123630;23;20080;-79
2022/05/31 01:47:08;;;;;;;6.13;4.63;;;7.20;91.50;;;;;;6123335;23;20030;-79
2022/05/31 01:49:40;;;;;;;10.02;4.80;;;7.20;91.40;;;;;;6124231;23;20797;-79
2022/05/31 01:52:09;;;;;;;7.68;4.50;;;7.20;91.20;;;;;;6124643;23;20044;-80
2022/05/31 01:54:38;;;;;;;6.55;4.35;;;7.20;90.90;;;;;;6126175;23;20109;-79
2022/05/31 01:57:07;;;;;;;5.53;4.22;;;7.20;91.10;;;;;;6122131;23;20462;-79
2022/05/31 01:59:39;;;;;;;6.07;4.40;;;7.20;91.10;;;;;;6124595;23;20066;-80
2022/05/31 02:02:07;;;;;;;5.65;4.40;;;7.20;91.10;;;;;;6123037;23;20031;-80
2022/05/31 02:04:34;;;;;;;6.95;4.95;;;7.20;91.00;;;;;;6123827;23;20082;-79
2022/05/31 02:07:13;;;;;;;8.13;5.32;;;7.20;91.10;;;;;;6120525;23;20037;-80
2022/05/31 02:09:42;;;;;;;6.78;4.82;;;7.20;91.20;;;;;;6125670;23;20053;-79
2022/05/31 02:12:13;;;;;;;7.18;5.28;;;7.10;91.30;;;;;;6122630;23;20078;-79
2022/05/31 02:14:41;;;;;;;8.00;5.43;;;7.20;91.30;;;;;;6123183;23;20026;-79
2022/05/31 02:17:08;;;;;;;8.93;5.68;;;7.20;91.40;;;;;;6122867;23;20057;-79
2022/05/31 02:19:35;;;;;;;10.02;5.68;;;7.20;91.50;;;;;;6122340;23;20089;-79
2022/05/31 02:22:06;;;;;;;7.72;5.80;;;7.20;91.60;;;;;;6099770;23;20050;-79
2022/05/31 02:24:33;;;;;;;8.55;5.35;;;7.20;91.60;;;;;;6124018;23;20033;-78
2022/05/31 02:27:01;;;;;;;7.68;5.40;;;7.20;91.60;;;;;;6125011;23;20341;-78
2022/05/31 02:29:31;;;;;;;8.65;5.70;;;7.20;91.60;;;;;;6122726;23;20084;-79
2022/05/31 02:32:00;;;;;;;7.85;5.55;;;7.20;91.60;;;;;;6124113;23;20037;-79
2022/05/31 02:34:30;;;;;;;6.93;5.15;;;7.20;91.80;;;;;;6122638;23;20105;-80
2022/05/31 02:36:56;;;;;;;7.55;5.50;;;7.30;92.00;;;;;;6122862;23;20036;-79
2022/05/31 02:39:24;;;;;;;8.65;5.32;;;7.20;91.70;;;;;;6122726;23;20374;-79
2022/05/31 02:41:52;;;;;;;9.23;5.60;;;7.30;91.60;;;;;;6123312;23;20457;-79
2022/05/31 02:44:20;;;;;;;9.70;6.72;;;7.20;91.50;;;;;;6122968;23;20029;-79
2022/05/31 02:46:46;;;;;;;11.35;6.10;;;7.30;91.80;;;;;;6123088;23;20105;-79
2022/05/31 02:49:13;;;;;;;8.45;5.97;;;7.30;91.90;;;;;;6121882;23;20034;-79
2022/05/31 02:51:43;;;;;;;8.65;5.68;;;7.30;91.50;;;;;;6121122;23;20382;-79
2022/05/31 02:54:11;;;;;;;8.50;5.35;;;7.30;91.20;;;;;;6120936;23;20103;-80
2022/05/31 02:56:38;;;;;;;8.80;5.60;;;7.30;91.00;;;;;;6123518;23;20065;-79
2022/05/31 02:59:05;;;;;;;8.13;5.72;;;7.30;90.90;;;;;;6122007;23;20033;-79
2022/05/31 03:01:35;;;;;;;7.82;5.35;;;7.30;91.20;;;;;;6122728;23;20021;-79
2022/05/31 03:04:04;;;;;;;7.70;5.50;;;7.30;90.90;;;;;;6122636;23;20445;-79
2022/05/31 03:06:31;;;;;;;6.60;5.00;;;7.40;91.30;;;;;;6122812;23;20032;-80
2022/05/31 03:08:58;;;;;;;7.40;5.35;;;7.40;91.60;;;;;;6122962;23;20131;-79
2022/05/31 03:11:41;;;;;;;8.05;5.00;;;7.40;91.50;;;;;;6124145;23;20063;-79
2022/05/31 03:14:25;;;;;;;6.75;5.20;;;7.40;91.40;;;;;;6123350;23;20023;-79
2022/05/31 03:17:09;;;;;;;7.25;5.18;;;7.40;91.30;;;;;;6124093;23;20033;-80
2022/05/31 03:19:40;;;;;;;;;;;7.30;91.00;;;;;;6147447;23;20023;-79
2022/05/31 03:22:14;;;;;;;6.47;4.72;;;7.40;91.40;;;;;;6124122;23;19925;-80
2022/05/31 03:24:47;;;;;;;10.10;4.88;;;7.40;91.70;;;;;;6124543;23;20027;-79
2022/05/31 03:27:14;;;;;;;8.57;5.13;;;7.40;91.60;;;;;;6124792;23;20033;-79
2022/05/31 03:29:45;;;;;;;7.00;4.93;;;7.40;91.60;;;;;;6124187;23;20109;-79
2022/05/31 03:32:14;;;;;;;7.18;4.90;;;7.40;91.50;;;;;;6124181;23;20031;-79
2022/05/31 03:34:41;;;;;;;7.28;4.95;;;7.40;91.40;;;;;;6123395;23;20101;-80
2022/05/31 03:37:08;;;;;;;6.35;4.57;;;7.30;91.60;;;;;;6123703;23;20852;-80
2022/05/31 03:39:34;;;;;;;6.53;4.90;;;7.30;91.60;;;;;;6123782;23;20031;-79
2022/05/31 03:42:01;;;;;;;7.68;5.00;;;7.30;91.30;;;;;;6124981;23;20040;-79
2022/05/31 03:44:28;;;;;;;7.00;4.82;;;7.30;91.50;;;;;;6123244;23;20022;-80
2022/05/31 03:46:54;;;;;;;8.00;4.82;;;7.40;91.60;;;;;;6123660;23;20482;-80
2022/05/31 03:49:21;;;;;;;9.85;4.78;;;7.40;91.60;;;;;;6123912;23;20097;-80
2022/05/31 03:51:48;;;;;;;5.97;4.53;;;7.30;91.70;;;;;;6123878;23;20035;-79
2022/05/31 03:54:14;;;;;;;7.70;5.05;;;7.30;91.50;;;;;;6123902;23;20030;-79
2022/05/31 03:56:41;;;;;;;7.38;4.85;;;7.40;91.50;;;;;;6123539;23;20351;-79
2022/05/31 03:59:08;;;;;;;10.52;4.80;;;7.40;91.50;;;;;;6123296;23;20454;-79
2022/05/31 04:01:35;;;;;;;7.43;4.95;;;7.40;91.40;;;;;;6124246;23;20046;-79
2022/05/31 04:04:03;;;;;;;8.93;4.97;;;7.40;91.50;;;;;;6122739;23;20034;-79
2022/05/31 04:06:31;;;;;;;6.57;4.95;;;7.40;91.60;;;;;;6124225;23;20047;-79
2022/05/31 04:08:59;;;;;;;8.40;5.28;;;7.50;91.70;;;;;;6123357;23;20451;-80
2022/05/31 04:11:25;;;;;;;8.63;5.20;;;7.50;91.80;;;;;;6123904;23;20031;-79
2022/05/31 04:13:53;;;;;;;7.43;4.90;;;7.50;91.70;;;;;;6123373;23;20823;-78
2022/05/31 04:16:21;;;;;;;8.85;5.07;;;7.60;91.70;;;;;;6124492;23;20026;-79
2022/05/31 04:18:49;;;;;;;9.88;4.95;;;7.60;91.70;;;;;;6121235;23;20034;-80
2022/05/31 04:21:17;;;;;;;9.13;5.25;;;7.60;91.60;;;;;;6123738;23;20035;-78
2022/05/31 04:24:08;;;;;;;6.97;5.40;;;7.70;91.60;;;;;;6122919;23;20030;-79
2022/05/31 04:26:44;;;;;;;7.88;5.53;;;7.70;91.80;;;;;;6123494;23;20410;-79
2022/05/31 04:29:10;;;;;;;7.22;5.10;;;7.80;91.70;;;;;;6122816;23;20454;-79
2022/05/31 04:31:37;;;;;;;8.07;5.00;;;7.80;91.70;;;;;;6123233;23;20101;-79
2022/05/31 04:34:04;;;;;;;7.00;5.43;;;7.90;91.40;;;;;;6122353;23;20031;-79
2022/05/31 04:36:32;;;;;;;6.85;4.85;;;7.90;91.30;;;;;;6123912;23;20426;-79
2022/05/31 04:38:59;;;;;;;7.90;5.13;;;8.00;91.00;;;;;;6123316;23;20026;-80
2022/05/31 04:41:28;;;;;;;7.97;5.07;;;8.00;90.80;;;;;;6121184;23;20067;-80
2022/05/31 04:43:57;;;;;;;7.35;5.25;;;8.10;91.20;;;;;;6122825;23;20435;-80
2022/05/31 04:46:27;;;;;;;10.10;4.88;;;8.20;91.00;;;;;;6121655;23;20495;-80
2022/05/31 04:48:56;;;;;;;7.38;4.70;;;8.20;90.90;;;;;;6122591;23;20026;-80
2022/05/31 04:51:23;;;;;;;6.97;5.28;;;8.30;90.80;;;;;;6123652;23;20455;-80
2022/05/31 04:53:50;;;;;;;8.82;5.00;;;8.40;90.80;;;;;;6122810;23;20026;-80
2022/05/31 04:56:19;;;;;;;8.38;5.32;;;8.50;90.50;;;;;;6123797;23;20033;-80
2022/05/31 04:58:49;;;;;;;9.90;5.32;;;8.60;90.80;;;;;;6121540;23;20050;-80
2022/05/31 05:01:16;;;;;;;8.52;5.05;;;8.70;91.10;;;;;;6120478;23;20473;-80
2022/05/31 05:03:44;;;;;;;7.50;5.20;;;8.80;90.60;;;;;;6123643;23;20498;-80
2022/05/31 05:06:13;;;;;;;9.55;5.45;;;8.90;90.60;;;;;;6121812;23;20544;-80
2022/05/31 05:08:41;;;;;;;7.45;5.20;;;9.00;90.80;;;;;;6124032;23;20037;-80
2022/05/31 05:11:17;;;;;;;7.50;5.30;;;9.10;90.20;;;;;;6123020;23;20097;-80
2022/05/31 05:13:46;;;;;;;11.45;5.57;;;9.20;88.70;;;;;;6123315;23;20030;-80
2022/05/31 05:16:15;;;;;;;7.35;5.10;;;9.20;87.30;;;;;;6122947;23;20627;-80
2022/05/31 05:18:44;;;;;;;7.05;4.97;;;9.30;86.50;;;;;;6123030;23;20030;-80
2022/05/31 05:21:13;;;;;;;9.23;5.60;;;9.40;86.60;;;;;;6123500;23;20043;-80
2022/05/31 05:23:40;;;;;;;8.65;5.40;;;9.50;86.50;;;;;;6124188;23;20553;-81
2022/05/31 05:26:07;;;;;;;6.95;5.05;;;9.50;85.30;;;;;;6123617;23;20126;-80
2022/05/31 05:31:26;;;;;;;7.93;5.78;;;9.60;84.10;;;;;;6120512;23;20026;-81
2022/05/31 05:33:54;;;;;;;10.43;5.95;;;9.70;84.50;;;;;;6121474;23;20097;-80
2022/05/31 05:36:22;;;;;;;9.38;5.53;;;9.70;84.60;;;;;;6122052;23;20050;-81
2022/05/31 05:38:49;;;;;;;10.13;6.22;;;9.70;83.40;;;;;;6122328;23;20557;-80
2022/05/31 05:41:17;;;;;;;10.90;6.30;;;9.80;84.20;;;;;;6123925;23;20058;-81
2022/05/31 05:43:44;;;;;;;10.40;5.90;;;9.90;83.30;;;;;;6123394;23;20792;-79
2022/05/31 05:46:21;;;;;;;10.32;5.82;;;9.90;82.80;;;;;;6121803;23;20407;-80
2022/05/31 05:48:48;;;;;;;11.55;5.85;;;10.00;82.50;;;;;;6124357;23;20539;-81
2022/05/31 05:51:19;;;;;;;11.73;6.55;;;10.00;82.00;;;;;;6124233;23;20553;-79
2022/05/31 05:53:45;;;;;;;9.77;6.28;;;10.10;81.90;;;;;;6124350;23;20041;-80
2022/05/31 05:56:13;;;;;;;12.23;6.90;;;10.10;81.70;;;;;;6098167;23;20030;-81
2022/05/31 05:58:41;;;;;;;9.95;6.53;;;10.20;82.70;;;;;;6121477;23;20030;-80
2022/05/31 06:01:17;;;;;;;10.35;6.13;;;10.30;80.50;;;;;;6123158;23;20082;-80
2022/05/31 06:03:49;;;;;;;9.48;6.45;;;10.30;80.30;;;;;;6123628;23;20033;-81
2022/05/31 06:06:17;;;;;;;13.95;6.32;;;10.40;80.00;;;;;;6118785;23;20583;-81
2022/05/31 06:08:52;;;;;;;12.48;6.93;;;10.50;79.50;;;;;;6122795;23;20555;-79
2022/05/31 06:11:27;;;;;;;9.98;6.65;;;10.60;78.80;;;;;;6121202;23;20474;-80
2022/05/31 06:14:00;;;;;;;8.70;5.90;;;10.60;78.90;;;;;;6119633;23;20033;-80
2022/05/31 06:16:32;;;;;;;12.52;6.70;;;10.70;78.90;;;;;;6123105;23;20110;-80
2022/05/31 06:19:06;;;;;;;13.20;7.07;;;10.80;80.00;;;;;;6122644;23;20022;-80
2022/05/31 06:21:33;;;;;;;11.15;6.97;;;10.90;80.50;;;;;;6121822;23;20036;-80
2022/05/31 06:24:01;;;;;;;15.45;6.53;;;10.90;80.60;;;;;;6122244;23;20026;-80
2022/05/31 06:26:30;;;;;;;11.23;7.15;;;11.00;79.10;;;;;;6121570;23;20362;-81
2022/05/31 06:28:57;;;;;;;12.68;6.70;;;11.10;78.50;;;;;;6120765;23;20471;-80
2022/05/31 06:31:23;;;;;;;11.23;7.63;;;11.20;77.60;;;;;;6124753;23;20073;-80
2022/05/31 06:33:51;;;;;;;12.18;6.72;;;11.30;77.80;;;;;;6122855;23;20026;-81
2022/05/31 06:36:17;;;;;;;11.60;7.15;;;11.40;76.90;;;;;;6119996;23;20030;-80
2022/05/31 06:38:45;;;;;;;17.30;7.22;;;11.50;77.40;;;;;;6122672;23;20031;-79
2022/05/31 06:41:12;;;;;;;14.40;7.10;;;11.50;76.90;;;;;;6122852;23;20034;-79
2022/05/31 06:43:39;;;;;;;13.27;7.32;;;11.70;76.70;;;;;;6124174;23;20030;-79
2022/05/31 06:46:08;;;;;;;12.65;7.32;;;11.80;75.70;;;;;;6123717;23;20152;-81
2022/05/31 06:48:35;;;;;;;13.07;7.45;;;11.90;75.50;;;;;;6125331;23;20038;-80
2022/05/31 06:51:11;;;;;;;11.32;7.53;;;12.00;74.80;;;;;;6124537;23;20026;-80
2022/05/31 06:59:08;;;;;;;18.05;8.00;;;12.30;73.30;;;;;;6124303;23;20034;-79
2022/05/31 07:01:37;;;;;;;12.60;8.15;;;12.40;74.20;;;;;;6122922;23;20033;-80
2022/05/31 07:04:04;;;;;;;13.68;7.45;;;12.40;73.70;;;;;;6121933;23;20343;-80
2022/05/31 07:06:32;;;;;;;12.20;7.65;;;12.50;72.70;;;;;;6122812;23;20058;-80
2022/05/31 07:08:59;;;;;;;13.00;8.02;;;12.60;72.80;;;;;;6123675;23;20470;-80
2022/05/31 07:11:26;;;;;;;12.60;7.88;;;12.70;73.30;;;;;;6122085;23;20069;-80
2022/05/31 07:13:53;;;;;;;11.85;7.65;;;12.90;72.50;;;;;;6122968;23;20038;-80
2022/05/31 07:16:20;;;;;;;15.98;7.15;;;13.00;71.10;;;;;;6121906;23;20026;-79
2022/05/31 07:18:47;;;;;;;13.20;7.30;;;13.20;70.50;;;;;;6122091;23;20057;-81
2022/05/31 07:21:14;;;;;;;11.70;6.90;;;13.40;70.40;;;;;;6141070;23;20030;-79
2022/05/31 07:23:41;;;;;;;15.73;7.50;;;13.70;67.80;;;;;;6157292;23;20032;-80
2022/05/31 07:26:09;;;;;;;16.23;7.20;;;13.90;68.00;;;;;;6181118;23;20026;-80
2022/05/31 07:28:56;;;;;;;14.93;6.68;;;14.40;68.10;;;;;;6157707;23;20105;-80
2022/05/31 07:31:22;;;;;;;10.45;6.30;;;15.00;66.10;;;;;;6180348;23;20026;-80
2022/05/31 07:33:50;;;;;;;11.68;5.68;;;15.40;63.50;;;;;;6157788;23;20542;-80
2022/05/31 07:36:18;;;;;;;13.25;6.55;;;15.80;63.00;;;;;;6157854;23;20018;-80
2022/05/31 07:38:46;;;;;;;14.57;6.72;;;16.20;61.20;;;;;;6158200;23;20049;-80
2022/05/31 07:41:12;;;;;;;10.27;6.25;;;16.60;60.10;;;;;;6157514;23;20054;-80
2022/05/31 07:43:45;;;;;;;;;;;16.60;59.20;;;;;;6157438;23;20026;-80
2022/05/31 07:46:13;;;;;;;10.20;6.22;;;16.70;58.50;;;;;;6158054;23;19928;-80
2022/05/31 07:48:41;;;;;;;11.85;5.93;;;16.70;59.60;;;;;;6157261;23;20436;-80
2022/05/31 07:51:08;;;;;;;9.75;5.60;;;16.70;60.20;;;;;;6157544;23;20061;-80
2022/05/31 07:53:35;;;;;;;12.43;6.07;;;16.70;57.50;;;;;;6155984;23;20022;-80
2022/05/31 07:56:07;;;;;;;10.70;5.85;;;16.50;58.50;;;;;;6180883;23;20531;-80
2022/05/31 07:58:39;;;;;;;11.60;6.00;;;16.50;59.50;;;;;;6157826;23;20022;-80
2022/05/31 08:01:08;;;;;;;11.30;6.28;;;16.30;59.40;;;;;;6158123;23;20054;-80
2022/05/31 08:03:37;;;;;;;12.05;6.30;;;16.40;59.60;;;;;;6157341;23;20496;-80
2022/05/31 08:06:06;;;;;;;10.25;6.07;;;16.50;59.60;;;;;;6156829;23;20018;-80
2022/05/31 08:08:35;;;;;;;9.70;5.80;;;16.70;58.70;;;;;;6146863;23;20049;-80
2022/05/31 08:11:13;;;;;;;11.38;5.50;;;16.90;58.60;;;;;;6147088;23;20026;-81
2022/05/31 08:13:40;;;;;;;12.23;5.45;;;17.00;58.30;;;;;;6178173;23;20379;-80
2022/05/31 08:16:09;;;;;;;9.05;4.18;;;17.00;57.90;;;;;;6178265;23;20509;-80
2022/05/31 08:18:37;;;;;;;6.75;3.58;;;17.00;56.30;;;;;;6156859;23;20057;-79
2022/05/31 08:21:21;;;;;;;9.98;3.78;;;17.10;54.50;;;;;;6156626;23;20530;-80
2022/05/31 08:23:48;;;;;;;5.45;3.30;;;17.20;52.70;;;;;;6157214;23;20096;-80
2022/05/31 08:26:15;;;;;;;5.75;3.25;;;17.30;52.20;;;;;;6157147;23;20058;-80
2022/05/31 08:28:41;;;;;;;9.73;3.38;;;17.40;52.20;;;;;;6156270;23;20053;-80
2022/05/31 08:31:10;;;;;;;8.57;3.30;;;17.70;50.60;;;;;;6157022;23;20159;-80
2022/05/31 08:33:39;;;;;;;6.60;2.85;;;17.90;49.50;;;;;;6155750;23;20022;-80
2022/05/31 08:36:07;;;;;;;8.75;3.40;;;18.30;48.30;;;;;;6157489;23;20022;-80
2022/05/31 08:38:34;;;;;;;8.32;3.33;;;18.70;48.70;;;;;;6157277;23;20988;-80
2022/05/31 08:41:21;;;;;;;7.20;3.20;;;19.10;47.90;;;;;;6157685;23;20519;-80
2022/05/31 08:43:48;;;;;;;7.47;3.55;;;19.40;49.40;;;;;;6157444;23;20030;-80
2022/05/31 08:46:41;;;;;;;8.50;3.15;;;19.50;47.80;;;;;;6158056;23;20026;-80
2022/05/31 08:49:18;;;;;;;9.32;3.40;;;19.60;46.90;;;;;;6157528;23;20822;-80
2022/05/31 08:52:03;;;;;;;6.13;3.20;;;19.50;45.00;;;;;;6157710;23;20034;-80
2022/05/31 08:57:36;;;;;;;5.80;3.03;;;20.00;45.00;;;;;;6155529;23;20358;-80
2022/05/31 09:00:13;;;;;;;8.30;3.15;;;20.30;44.10;;;;;;6156676;23;20026;-81
2022/05/31 09:02:51;;;;;;;8.32;3.58;;;20.60;41.80;;;;;;6156923;23;20108;-80
2022/05/31 09:05:29;;;;;;;6.95;3.47;;;20.80;41.70;;;;;;6156811;23;20057;-80
2022/05/31 09:08:11;;;;;;;5.60;3.47;;;20.80;44.30;;;;;;6180485;23;20029;-80
2022/05/31 09:10:53;;;;;;;8.30;3.37;;;20.80;43.70;;;;;;6157408;23;20034;-80
2022/05/31 09:13:27;;;;;;;9.68;3.33;;;20.70;43.40;;;;;;6157454;23;20112;-80
2022/05/31 09:16:26;;;;;;;9.55;3.17;;;20.60;44.40;;;;;;6156143;23;20018;-80
2022/05/31 09:19:00;;;;;;;7.68;3.30;;;20.60;45.90;;;;;;6156128;23;20363;-80
2022/05/31 09:21:41;;;;;;;7.45;3.70;;;20.20;44.40;;;;;;6157215;23;20097;-79
2022/05/31 09:24:16;;;;;;;9.35;3.85;;;19.70;44.30;;;;;;6154962;23;20030;-80
2022/05/31 09:27:04;;;;;;;;;;;19.30;45.70;;;;;;6155457;23;20032;-79
2022/05/31 09:29:46;;;;;;;9.95;3.70;;;18.90;45.80;;;;;;6155555;23;20718;-80
2022/05/31 09:32:27;;;;;;;5.90;3.33;;;18.90;47.10;;;;;;6154274;23;20145;-79
2022/05/31 09:35:04;;;;;;;10.30;4.30;;;18.80;46.10;;;;;;6155175;23;20034;-79
2022/05/31 09:37:52;;;;;;;9.75;4.18;;;18.60;48.90;;;;;;6155390;23;20036;-79
2022/05/31 09:40:41;;;;;;;6.63;4.00;;;18.40;49.70;;;;;;6155355;23;20026;-79
2022/05/31 09:43:31;;;;;;;9.98;4.43;;;18.20;49.40;;;;;;6155552;23;20057;-79
2022/05/31 09:46:11;;;;;;;10.95;4.90;;;18.10;50.20;;;;;;6155348;23;20541;-79
2022/05/31 09:48:46;;;;;;;10.95;4.50;;;18.20;48.90;;;;;;6154669;23;20395;-79
2022/05/31 09:51:42;;;;;;;9.38;4.63;;;18.50;48.50;;;;;;6154681;23;20030;-79
2022/05/31 09:57:07;;;;;;;9.55;4.70;;;18.50;47.20;;;;;;6154953;23;20059;-79
2022/05/31 09:59:42;;;;;;;8.15;4.50;;;18.30;47.20;;;;;;6152043;23;20057;-79
2022/05/31 10:02:25;;;;;;;8.80;3.95;;;18.30;48.70;;;;;;6154113;23;20041;-80
2022/05/31 10:05:06;;;;;;;;;;;18.20;48.40;;;;;;6155636;23;20080;-80
2022/05/31 10:07:37;;;;;;;9.75;3.58;;;18.20;49.70;;;;;;6153314;23;20539;-79
2022/05/31 10:10:24;;;;;;;7.00;3.05;;;18.30;46.30;;;;;;6152079;23;20032;-79
2022/05/31 10:12:57;;;;;;;6.90;3.28;;;18.50;46.10;;;;;;6153504;23;20034;-79
2022/05/31 10:15:43;;;;;;;6.10;2.72;;;18.50;44.80;;;;;;6156568;23;20100;-79
2022/05/31 10:18:28;;;;;;;7.28;2.67;;;18.70;42.50;;;;;;6156875;23;20152;-80
2022/05/31 10:21:02;;;;;;;5.43;2.72;;;18.90;45.50;;;;;;6157895;23;20081;-79
2022/05/31 10:23:39;;;;;;;10.25;3.03;;;19.10;44.90;;;;;;6156339;23;20607;-79
2022/05/31 10:26:06;;;;;;;8.93;3.15;;;19.30;44.80;;;;;;6140416;23;20249;-80
2022/05/31 10:28:39;;;;;;;6.07;3.20;;;19.50;43.80;;;;;;6155805;23;20468;-80
2022/05/31 10:31:33;;;;;;;9.48;3.40;;;19.80;45.60;;;;;;6164906;23;20026;-80
2022/05/31 10:34:05;;;;;;;7.20;2.88;;;20.10;44.20;;;;;;6186549;23;20147;-80
2022/05/31 10:36:46;;;;;;;7.07;3.00;;;20.20;42.90;;;;;;6185023;23;20110;-80
2022/05/31 10:39:20;;;;;;;10.93;2.80;;;20.40;43.20;;;;;;6186157;23;20033;-79
2022/05/31 10:41:49;;;;;;;13.80;2.97;;;20.50;42.00;;;;;;6179889;23;20036;-80
2022/05/31 10:44:51;;;;;;;8.10;3.33;;;20.60;41.40;;;;;;6186624;23;20026;-79
2022/05/31 10:47:20;;;;;;;5.82;2.72;;;21.00;40.30;;;;;;6188837;23;20025;-79
2022/05/31 10:49:49;;;;;;;8.40;2.47;;;21.40;41.20;;;;;;6187390;23;20025;-80
2022/05/31 10:52:28;;;;;;;6.50;2.70;;;21.80;39.50;;;;;;6186284;23;20080;-80
2022/05/31 10:55:29;;;;;;;5.93;2.53;;;21.90;40.40;;;;;;6187450;23;20036;-80
2022/05/31 10:58:18;;;;;;;8.00;3.65;;;21.80;39.60;;;;;;6186613;23;20031;-80
2022/05/31 11:00:51;;;;;;;6.43;3.65;;;22.30;40.10;;;;;;6186657;23;20057;-80
2022/05/31 11:03:38;;;;;;;;;;;22.70;40.80;;;;;;6186806;23;20029;-81
2022/05/31 11:06:13;;;;;;;7.72;3.58;;;23.30;39.90;;;;;;6210724;23;19927;-81
2022/05/31 11:12:15;;;;;;;6.30;2.75;;;22.90;37.60;;;;;;6188542;23;20105;-80
2022/05/31 11:15:05;;;;;;;7.35;2.90;;;22.20;40.00;;;;;;6212125;23;20092;-80
2022/05/31 11:18:11;;;;;;;5.93;2.83;;;21.70;39.20;;;;;;6188677;23;20053;-80
2022/05/31 11:21:26;;;;;;;8.85;3.03;;;21.20;37.90;;;;;;6187263;23;20030;-80
2022/05/31 11:24:12;;;;;;;10.93;2.50;;;20.80;43.20;;;;;;6185735;23;20109;-81
2022/05/31 11:27:23;;;;;;;5.05;3.00;;;20.30;39.40;;;;;;6186379;23;20025;-80
2022/05/31 11:30:12;;;;;;;5.45;2.55;;;20.00;38.70;;;;;;6184515;23;20036;-80
2022/05/31 11:32:54;;;;;;;7.13;2.95;;;19.60;39.50;;;;;;6183794;23;20025;-80
2022/05/31 11:35:27;;;;;;;7.05;3.20;;;19.30;42.20;;;;;;6183533;23;20499;-80
2022/05/31 11:38:09;;;;;;;6.15;3.45;;;19.30;44.10;;;;;;6184627;23;20032;-81
2022/05/31 11:41:06;;;;;;;9.57;3.20;;;19.30;44.50;;;;;;6185223;23;20098;-80
2022/05/31 11:43:47;;;;;;;8.85;2.80;;;19.20;41.60;;;;;;6161214;23;20048;-80
2022/05/31 11:46:26;;;;;;;8.20;3.22;;;19.40;42.90;;;;;;6186701;23;20033;-80
2022/05/31 11:49:04;;;;;;;4.05;2.80;;;20.00;41.40;;;;;;6186538;23;20491;-80
2022/05/31 11:51:45;;;;;;;6.82;3.53;;;20.70;42.40;;;;;;6184642;23;20022;-80
2022/05/31 11:54:36;;;;;;;4.47;3.05;;;21.20;38.00;;;;;;6183270;23;20025;-80
2022/05/31 11:57:34;;;;;;;7.97;3.50;;;21.20;39.00;;;;;;6183601;23;20068;-80
2022/05/31 12:00:05;;;;;;;5.80;3.30;;;21.20;37.50;;;;;;6159070;23;20022;-80
2022/05/31 12:02:41;;;;;;;5.53;3.22;;;21.30;38.20;;;;;;6183502;23;20084;-80
2022/05/31 12:05:37;;;;;;;7.72;3.28;;;21.60;38.70;;;;;;6183425;23;20029;-80
2022/05/31 12:08:09;;;;;;;6.28;3.20;;;22.00;38.10;;;;;;6186451;23;20460;-81
2022/05/31 12:10:51;;;;;;;6.88;3.63;;;22.40;39.00;;;;;;6186517;23;20056;-80
2022/05/31 12:13:19;;;;;;;8.63;2.92;;;22.70;37.40;;;;;;6186443;23;20021;-80
2022/05/31 12:15:49;;;;;;;6.95;3.13;;;22.30;39.30;;;;;;6186939;23;20021;-80
2022/05/31 12:18:30;;;;;;;5.78;3.05;;;21.90;39.20;;;;;;6186304;23;20832;-80
2022/05/31 12:21:32;;;;;;;4.22;3.05;;;21.80;39.50;;;;;;6187618;23;20505;-80
2022/05/31 12:24:04;;;;;;;6.10;2.60;;;21.60;39.60;;;;;;6187471;23;20029;-80
2022/05/31 12:26:39;;;;;;;6.85;3.30;;;21.40;39.20;;;;;;6210755;23;20024;-80
2022/05/31 12:29:05;;;;;;;6.07;2.90;;;20.90;39.50;;;;;;6187436;23;20647;-80
2022/05/31 12:31:36;;;;;;;6.53;2.65;;;20.80;42.40;;;;;;6187250;23;20033;-80
2022/05/31 12:34:40;;;;;;;5.68;2.35;;;20.70;42.10;;;;;;6187088;23;20026;-80
2022/05/31 12:37:12;;;;;;;6.47;2.83;;;20.50;39.20;;;;;;6186659;23;20111;-80
2022/05/31 12:39:44;;;;;;;8.65;2.95;;;20.40;40.40;;;;;;6186791;23;20029;-80
2022/05/31 12:42:14;;;;;;;5.20;3.00;;;20.40;39.80;;;;;;6186939;23;20128;-80
2022/05/31 12:44:43;;;;;;;7.57;2.70;;;20.40;40.90;;;;;;6187401;23;20818;-80
2022/05/31 12:47:26;;;;;;;4.80;2.40;;;20.30;40.70;;;;;;6187266;23;20025;-80
2022/05/31 12:50:10;;;;;;;7.85;3.05;;;20.30;41.30;;;;;;6187953;23;20866;-81
2022/05/31 12:55:31;;;;;;;8.32;3.28;;;21.40;38.50;;;;;;6187449;23;20045;-80
2022/05/31 12:58:26;;;;;;;8.10;3.33;;;22.10;40.70;;;;;;6187367;23;20032;-80
2022/05/31 13:00:55;;;;;;;11.02;2.58;;;22.60;35.20;;;;;;6187752;23;20029;-80
2022/05/31 13:03:34;;;;;;;6.15;2.47;;;23.30;34.10;;;;;;6187163;23;20360;-80
2022/05/31 13:06:10;;;;;;;7.75;2.90;;;23.30;34.30;;;;;;6186174;23;20029;-80
2022/05/31 13:08:52;;;;;;;8.15;3.50;;;23.00;36.90;;;;;;6184930;23;20056;-80
2022/05/31 13:20:42;;;;;;;7.43;3.25;;;20.00;41.00;;;;;;6214129;23;20025;-80
2022/05/31 13:23:18;;;;;;;5.68;2.80;;;19.50;41.10;;;;;;6189469;23;20131;-80
2022/05/31 13:25:58;;;;;;;9.27;3.08;;;19.10;42.20;;;;;;6188363;23;20843;-80
2022/05/31 13:28:25;;;;;;;6.95;3.55;;;18.80;41.80;;;;;;6214416;23;20079;-80
2022/05/31 13:30:57;;;;;;;7.63;3.80;;;18.70;43.30;;;;;;6214476;23;20100;-80
2022/05/31 13:33:24;;;;;;;6.15;3.83;;;18.70;43.60;;;;;;6213184;23;20569;-80
2022/05/31 13:36:02;;;;;;;7.43;4.05;;;18.50;44.10;;;;;;6213546;23;20025;-80
2022/05/31 13:38:33;;;;;;;6.93;3.58;;;18.20;45.20;;;;;;6213880;23;20124;-80
2022/05/31 13:41:02;;;;;;;9.85;3.42;;;18.10;46.40;;;;;;6214512;23;20104;-80
2022/05/31 13:43:36;;;;;;;7.18;3.70;;;18.00;47.00;;;;;;6213254;23;20032;-80
2022/05/31 13:46:38;;;;;;;5.68;3.15;;;18.00;46.40;;;;;;6214359;23;20501;-80
2022/05/31 13:49:35;;;;;;;9.85;3.90;;;17.80;46.60;;;;;;6187880;23;20045;-82
2022/05/31 13:52:05;;;;;;;12.20;4.47;;;17.60;48.50;;;;;;6186987;23;20116;-81